Time;durP1;ratioP1;P1;durP2;ratioP2;P2;SDS_P1;SDS_P2;PMS_P1;PMS_P2;Temp;Humidity;BMP_temperature;BMP_pressure;BME280_temperature;BME280_humidity;BME280_pressure;Samples;Min_cycle;Max_cycle;Signal;HPM_P1;HPM_P2
2023/05/06 00:01:00;;;;;;;11.40;9.88;;;;;;;;;;4973177;28;20173;-72
2023/05/06 00:03:25;;;;;;;11.13;8.75;;;;;;;;;;4956850;28;20035;-74
2023/05/06 00:05:51;;;;;;;12.20;9.15;;;;;;;;;;4972724;28;20041;-72
2023/05/06 00:08:16;;;;;;;13.23;10.85;;;;;;;;;;4971029;28;20035;-74
2023/05/06 00:10:42;;;;;;;12.93;9.88;;;;;;;;;;4970876;28;20034;-74
2023/05/06 00:13:07;;;;;;;14.20;11.88;;;;;;;;;;4970312;28;20038;-77
2023/05/06 00:15:33;;;;;;;18.30;11.77;;;;;;;;;;4975784;28;20027;-73
2023/05/06 00:17:58;;;;;;;13.02;11.15;;;;;;;;;;4959870;28;20098;-72
2023/05/06 00:20:24;;;;;;;12.68;10.60;;;;;;;;;;4969300;28;20031;-72
2023/05/06 00:22:49;;;;;;;13.07;10.48;;;;;;;;;;4963901;28;20331;-71
2023/05/06 00:25:14;;;;;;;13.32;10.63;;;;;;;;;;4965733;28;20023;-72
2023/05/06 00:27:40;;;;;;;14.95;13.32;;;;;;;;;;4956716;28;20026;-71
2023/05/06 00:30:06;;;;;;;18.77;11.70;;;;;;;;;;4955367;28;20113;-78
2023/05/06 00:32:31;;;;;;;14.43;10.65;;;;;;;;;;4972369;28;20081;-71
2023/05/06 00:34:56;;;;;;;10.82;9.30;;;;;;;;;;4981744;28;20049;-74
2023/05/06 00:37:22;;;;;;;11.00;9.60;;;;;;;;;;4976913;28;20034;-73
2023/05/06 00:39:47;;;;;;;10.40;9.45;;;;;;;;;;4970508;28;20038;-75
2023/05/06 00:42:12;;;;;;;12.52;9.95;;;;;;;;;;4960405;28;20438;-71
2023/05/06 00:44:38;;;;;;;11.88;9.93;;;;;;;;;;4968803;28;20032;-72
2023/05/06 00:47:03;;;;;;;14.35;11.73;;;;;;;;;;4970073;28;20072;-71
2023/05/06 00:49:29;;;;;;;18.10;13.52;;;;;;;;;;4969960;28;20113;-72
2023/05/06 00:51:56;;;;;;;15.60;11.48;;;;;;;;;;4970820;28;20117;-73
2023/05/06 00:54:23;;;;;;;13.00;8.15;;;;;;;;;;4970223;28;20031;-72
2023/05/06 00:56:48;;;;;;;9.23;7.70;;;;;;;;;;4968220;28;20027;-71
2023/05/06 00:59:14;;;;;;;13.88;7.47;;;;;;;;;;4964077;28;20940;-71
2023/05/06 01:01:39;;;;;;;11.40;7.53;;;;;;;;;;4977073;28;20106;-76
2023/05/06 01:04:06;;;;;;;12.00;7.30;;;;;;;;;;4970976;28;20114;-74
2023/05/06 01:06:43;;;;;;;18.20;11.40;;;;;;;;;;4957927;28;20102;-71
2023/05/06 01:09:18;;;;;;;20.85;12.90;;;;;;;;;;4973558;28;20394;-71
2023/05/06 01:12:02;;;;;;;19.00;10.82;;;;;;;;;;4974691;28;20426;-73
2023/05/06 01:14:35;;;;;;;10.23;7.60;;;;;;;;;;4969103;28;20039;-72
2023/05/06 01:17:02;;;;;;;7.20;6.57;;;;;;;;;;4974229;28;20034;-72
2023/05/06 01:19:40;;;;;;;7.68;7.07;;;;;;;;;;4969939;28;20019;-71
2023/05/06 01:22:06;;;;;;;8.55;7.75;;;;;;;;;;4964128;28;20035;-71
2023/05/06 01:24:35;;;;;;;9.40;8.60;;;;;;;;;;4966925;28;20093;-72
2023/05/06 01:27:00;;;;;;;10.85;9.75;;;;;;;;;;4969185;28;20018;-74
2023/05/06 01:29:26;;;;;;;11.50;9.20;;;;;;;;;;4970764;28;20026;-71
2023/05/06 01:31:53;;;;;;;11.90;10.15;;;;;;;;;;4968789;28;20022;-75
2023/05/06 01:34:51;;;;;;;10.18;9.18;;;;;;;;;;4968747;28;20078;-70
2023/05/06 01:37:43;;;;;;;9.43;8.55;;;;;;;;;;4947730;28;20034;-74
2023/05/06 01:40:08;;;;;;;8.50;7.80;;;;;;;;;;4964696;28;20037;-72
2023/05/06 01:42:34;;;;;;;8.05;7.25;;;;;;;;;;4968807;28;20031;-72
2023/05/06 01:45:01;;;;;;;7.43;6.75;;;;;;;;;;4974122;28;20141;-74
2023/05/06 01:47:26;;;;;;;8.93;8.10;;;;;;;;;;4969588;28;20031;-75
2023/05/06 01:49:52;;;;;;;10.13;9.15;;;;;;;;;;4966346;28;20031;-73
2023/05/06 01:52:19;;;;;;;9.00;8.20;;;;;;;;;;4960761;28;20038;-71
2023/05/06 01:54:44;;;;;;;10.45;9.00;;;;;;;;;;4963731;28;21316;-73
2023/05/06 01:57:10;;;;;;;8.07;7.30;;;;;;;;;;4970510;28;20093;-72
2023/05/06 01:59:35;;;;;;;7.85;7.15;;;;;;;;;;4974690;28;20042;-78
2023/05/06 02:02:00;;;;;;;7.65;6.90;;;;;;;;;;4959453;28;20038;-74
2023/05/06 02:04:26;;;;;;;7.60;6.85;;;;;;;;;;4970118;28;20069;-72
2023/05/06 02:06:51;;;;;;;8.68;6.75;;;;;;;;;;4970930;28;20080;-74
2023/05/06 02:09:16;;;;;;;6.93;5.70;;;;;;;;;;4970058;28;20779;-71
2023/05/06 02:11:42;;;;;;;7.57;5.90;;;;;;;;;;4969756;28;20038;-72
2023/05/06 02:14:07;;;;;;;6.68;6.07;;;;;;;;;;4964475;28;20030;-72
2023/05/06 02:16:32;;;;;;;7.93;6.82;;;;;;;;;;4965383;28;20121;-72
2023/05/06 02:18:58;;;;;;;8.07;7.30;;;;;;;;;;4968872;28;20026;-73
2023/05/06 02:21:23;;;;;;;7.50;6.75;;;;;;;;;;4968926;28;20113;-78
2023/05/06 02:23:49;;;;;;;7.45;6.78;;;;;;;;;;4959353;28;20367;-73
2023/05/06 02:26:15;;;;;;;8.27;6.68;;;;;;;;;;4972678;28;20438;-74
2023/05/06 02:28:40;;;;;;;8.48;7.68;;;;;;;;;;4968705;28;20057;-74
2023/05/06 02:31:06;;;;;;;10.20;8.98;;;;;;;;;;4970993;28;20066;-71
2023/05/06 02:33:31;;;;;;;8.07;7.25;;;;;;;;;;4961477;28;20370;-71
2023/05/06 02:35:56;;;;;;;8.88;7.97;;;;;;;;;;4962539;28;20038;-70
2023/05/06 02:38:22;;;;;;;77.30;32.20;;;;;;;;;;4970720;28;20021;-71
2023/05/06 02:40:47;;;;;;;38.05;19.92;;;;;;;;;;4967671;28;20050;-71
2023/05/06 02:43:12;;;;;;;10.85;9.75;;;;;;;;;;4958399;28;20027;-72
2023/05/06 02:45:38;;;;;;;8.45;6.93;;;;;;;;;;4972230;28;20044;-73
2023/05/06 02:48:03;;;;;;;7.53;6.78;;;;;;;;;;4969161;28;20030;-75
2023/05/06 02:50:29;;;;;;;7.20;6.45;;;;;;;;;;4969506;28;20521;-72
2023/05/06 02:52:54;;;;;;;6.95;6.35;;;;;;;;;;4966094;28;20458;-75
2023/05/06 02:55:20;;;;;;;9.45;7.22;;;;;;;;;;4968449;28;20066;-71
2023/05/06 02:57:45;;;;;;;10.77;7.55;;;;;;;;;;4970706;28;20026;-72
2023/05/06 03:00:11;;;;;;;7.60;6.78;;;;;;;;;;4970393;28;20026;-71
2023/05/06 03:02:37;;;;;;;7.50;6.80;;;;;;;;;;4965711;28;20478;-74
2023/05/06 03:05:05;;;;;;;9.70;7.60;;;;;;;;;;4972113;28;20027;-76
2023/05/06 03:07:30;;;;;;;7.43;6.72;;;;;;;;;;4963051;28;20466;-71
2023/05/06 03:09:56;;;;;;;8.77;7.95;;;;;;;;;;4960874;28;20031;-72
2023/05/06 03:12:21;;;;;;;8.52;7.72;;;;;;;;;;4972190;28;20197;-73
2023/05/06 03:14:46;;;;;;;8.77;7.07;;;;;;;;;;4975506;28;20030;-72
2023/05/06 03:17:12;;;;;;;10.88;6.50;;;;;;;;;;4972951;28;20035;-71
2023/05/06 03:19:37;;;;;;;11.35;8.10;;;;;;;;;;4972195;28;20506;-77
2023/05/06 03:22:02;;;;;;;8.23;7.43;;;;;;;;;;4964675;28;20050;-73
2023/05/06 03:24:28;;;;;;;7.30;6.70;;;;;;;;;;4965576;28;20137;-71
2023/05/06 03:26:53;;;;;;;7.28;6.60;;;;;;;;;;4973269;28;20643;-76
2023/05/06 03:29:19;;;;;;;7.85;7.15;;;;;;;;;;4974558;28;20105;-72
2023/05/06 03:31:44;;;;;;;7.50;6.78;;;;;;;;;;4974125;28;20382;-71
2023/05/06 03:34:09;;;;;;;8.35;7.57;;;;;;;;;;4973369;28;20065;-71
2023/05/06 03:36:35;;;;;;;8.73;7.93;;;;;;;;;;4971270;28;20034;-72
2023/05/06 03:39:00;;;;;;;11.10;8.70;;;;;;;;;;4973360;28;20038;-71
2023/05/06 03:41:26;;;;;;;9.23;8.02;;;;;;;;;;4970184;28;20057;-71
2023/05/06 03:43:52;;;;;;;8.60;7.30;;;;;;;;;;4960389;28;21209;-74
2023/05/06 03:46:18;;;;;;;9.48;7.57;;;;;;;;;;4972259;28;20257;-70
2023/05/06 03:48:43;;;;;;;8.25;7.45;;;;;;;;;;4973622;28;20494;-71
2023/05/06 03:51:09;;;;;;;10.15;8.25;;;;;;;;;;4962801;28;20030;-70
2023/05/06 03:53:34;;;;;;;11.90;7.93;;;;;;;;;;4974137;28;20054;-70
2023/05/06 03:56:00;;;;;;;14.52;7.88;;;;;;;;;;4970876;28;20314;-72
2023/05/06 03:58:26;;;;;;;10.77;7.85;;;;;;;;;;4957736;28;20354;-72
2023/05/06 04:00:51;;;;;;;9.77;8.77;;;;;;;;;;4971703;28;20015;-76
2023/05/06 04:03:16;;;;;;;10.50;8.75;;;;;;;;;;4971613;28;20030;-73
2023/05/06 04:05:42;;;;;;;11.13;9.60;;;;;;;;;;4960479;28;20081;-72
2023/05/06 04:08:07;;;;;;;10.45;9.43;;;;;;;;;;4965754;28;20089;-75
2023/05/06 04:10:36;;;;;;;9.85;8.95;;;;;;;;;;4971221;28;20041;-72
2023/05/06 04:13:01;;;;;;;8.77;7.60;;;;;;;;;;4974851;28;20092;-73
2023/05/06 04:15:30;;;;;;;9.45;8.55;;;;;;;;;;4971324;28;20419;-71
2023/05/06 04:17:56;;;;;;;9.88;8.98;;;;;;;;;;4960423;28;20030;-71
2023/05/06 04:20:21;;;;;;;11.25;10.00;;;;;;;;;;4964133;28;20042;-76
2023/05/06 04:22:47;;;;;;;12.63;9.68;;;;;;;;;;4966025;28;20034;-72
2023/05/06 04:25:12;;;;;;;9.55;8.65;;;;;;;;;;4977182;28;20069;-77
2023/05/06 04:27:37;;;;;;;9.90;8.98;;;;;;;;;;4973430;28;20525;-73
2023/05/06 04:30:03;;;;;;;10.57;9.57;;;;;;;;;;4975206;28;20061;-72
2023/05/06 04:32:28;;;;;;;10.32;9.27;;;;;;;;;;4967405;28;20043;-71
2023/05/06 04:34:54;;;;;;;10.50;9.50;;;;;;;;;;4914894;28;20099;-76
2023/05/06 04:37:20;;;;;;;10.10;9.30;;;;;;;;;;4953967;28;20030;-71
2023/05/06 04:39:48;;;;;;;11.23;10.13;;;;;;;;;;4953432;28;20035;-75
2023/05/06 04:42:14;;;;;;;10.80;9.80;;;;;;;;;;4969249;28;20086;-72
2023/05/06 04:44:41;;;;;;;14.15;9.25;;;;;;;;;;4969462;28;20025;-70
2023/05/06 04:47:06;;;;;;;10.80;9.80;;;;;;;;;;4975443;28;20418;-77
2023/05/06 04:49:31;;;;;;;11.57;10.57;;;;;;;;;;4971532;28;20030;-73
2023/05/06 04:51:57;;;;;;;10.63;9.70;;;;;;;;;;4971269;28;20455;-75
2023/05/06 04:54:22;;;;;;;12.77;11.57;;;;;;;;;;4969050;28;20343;-75
2023/05/06 04:56:47;;;;;;;13.93;12.52;;;;;;;;;;4974419;28;20466;-73
2023/05/06 04:59:13;;;;;;;12.25;11.07;;;;;;;;;;4970951;28;20026;-70
2023/05/06 05:01:38;;;;;;;12.80;11.45;;;;;;;;;;4973187;28;20046;-72
2023/05/06 05:04:06;;;;;;;12.77;11.68;;;;;;;;;;4967731;28;20027;-72
2023/05/06 05:06:32;;;;;;;12.18;11.13;;;;;;;;;;4972298;28;20057;-74
2023/05/06 05:08:57;;;;;;;11.52;10.52;;;;;;;;;;4972582;28;20077;-75
2023/05/06 05:11:23;;;;;;;11.60;10.50;;;;;;;;;;4968504;28;20467;-73
2023/05/06 05:13:48;;;;;;;11.60;10.48;;;;;;;;;;4968884;28;20442;-70
2023/05/06 05:16:14;;;;;;;11.57;10.38;;;;;;;;;;4970263;28;20468;-76
2023/05/06 05:18:39;;;;;;;12.32;11.13;;;;;;;;;;4964700;28;20026;-70
2023/05/06 05:21:04;;;;;;;13.00;11.80;;;;;;;;;;4960085;28;20405;-71
2023/05/06 05:23:30;;;;;;;13.25;11.85;;;;;;;;;;4965670;28;20033;-72
2023/05/06 05:25:55;;;;;;;14.52;11.93;;;;;;;;;;4953741;28;20477;-74
2023/05/06 05:28:20;;;;;;;13.90;12.45;;;;;;;;;;4955629;28;20030;-71
2023/05/06 05:30:46;;;;;;;13.93;12.60;;;;;;;;;;4959386;28;20030;-75
2023/05/06 05:33:11;;;;;;;13.95;12.60;;;;;;;;;;4970507;28;20743;-72
2023/05/06 05:35:37;;;;;;;15.27;12.23;;;;;;;;;;4971825;28;20082;-73
2023/05/06 05:38:02;;;;;;;13.32;12.13;;;;;;;;;;4963402;28;20652;-77
2023/05/06 05:40:27;;;;;;;18.27;14.45;;;;;;;;;;4960171;28;20480;-71
2023/05/06 05:42:53;;;;;;;15.38;13.50;;;;;;;;;;4964697;28;20412;-71
2023/05/06 05:45:20;;;;;;;20.73;17.83;;;;;;;;;;4953100;28;20039;-73
2023/05/06 05:47:45;;;;;;;17.20;14.48;;;;;;;;;;4957085;28;20109;-76
2023/05/06 05:50:11;;;;;;;11.88;10.85;;;;;;;;;;4973011;28;20122;-71
2023/05/06 05:52:36;;;;;;;13.02;11.77;;;;;;;;;;4969697;28;20035;-71
2023/05/06 05:55:01;;;;;;;11.77;10.80;;;;;;;;;;4960766;28;20113;-69
2023/05/06 05:57:27;;;;;;;9.57;8.65;;;;;;;;;;4965583;28;20434;-71
2023/05/06 05:59:52;;;;;;;10.70;9.70;;;;;;;;;;4969985;28;20351;-71
2023/05/06 06:02:17;;;;;;;11.38;10.45;;;;;;;;;;4969248;28;20042;-71
2023/05/06 06:04:43;;;;;;;11.20;9.93;;;;;;;;;;4969033;28;20089;-72
2023/05/06 06:07:08;;;;;;;11.93;10.90;;;;;;;;;;4961748;28;20027;-76
2023/05/06 06:09:34;;;;;;;12.10;10.73;;;;;;;;;;4965599;28;20422;-73
2023/05/06 06:11:59;;;;;;;11.30;10.30;;;;;;;;;;4971683;28;20034;-75
2023/05/06 06:14:24;;;;;;;10.40;9.50;;;;;;;;;;4967068;28;20030;-73
2023/05/06 06:16:50;;;;;;;9.85;8.95;;;;;;;;;;4952917;28;20026;-72
2023/05/06 06:19:15;;;;;;;10.30;9.30;;;;;;;;;;4954657;28;20041;-71
2023/05/06 06:21:40;;;;;;;11.15;9.98;;;;;;;;;;4951825;28;20054;-71
2023/05/06 06:24:06;;;;;;;11.35;10.23;;;;;;;;;;4954443;28;20033;-73
2023/05/06 06:26:31;;;;;;;11.05;9.93;;;;;;;;;;4954374;28;20034;-71
2023/05/06 06:28:56;;;;;;;12.45;10.63;;;;;;;;;;4952575;28;20022;-72
2023/05/06 06:31:22;;;;;;;12.52;11.10;;;;;;;;;;4953143;28;20026;-71
2023/05/06 06:33:47;;;;;;;11.18;10.15;;;;;;;;;;4954464;28;20031;-75
2023/05/06 06:36:13;;;;;;;13.15;10.15;;;;;;;;;;4955357;28;20034;-71
2023/05/06 06:38:39;;;;;;;11.63;10.52;;;;;;;;;;4955165;28;20031;-75
2023/05/06 06:41:04;;;;;;;11.60;10.57;;;;;;;;;;4959530;28;20473;-71
2023/05/06 06:43:30;;;;;;;12.90;10.98;;;;;;;;;;4975284;28;20055;-71
2023/05/06 06:45:55;;;;;;;15.48;10.75;;;;;;;;;;4972072;28;20089;-71
2023/05/06 06:48:20;;;;;;;12.10;10.90;;;;;;;;;;4958765;28;20018;-71
2023/05/06 06:50:46;;;;;;;13.10;11.70;;;;;;;;;;4952533;28;20026;-74
2023/05/06 06:53:11;;;;;;;15.95;11.60;;;;;;;;;;4961738;28;20039;-72
2023/05/06 06:55:37;;;;;;;12.25;11.02;;;;;;;;;;4971940;28;20684;-73
2023/05/06 06:58:02;;;;;;;13.27;10.63;;;;;;;;;;4967550;28;20406;-75
2023/05/06 07:00:27;;;;;;;10.88;9.90;;;;;;;;;;4967513;28;20035;-73
2023/05/06 07:02:53;;;;;;;10.32;9.35;;;;;;;;;;4961738;28;20109;-71
2023/05/06 07:05:18;;;;;;;11.13;10.10;;;;;;;;;;4954075;28;20038;-71
2023/05/06 07:07:44;;;;;;;10.95;9.88;;;;;;;;;;4951306;28;20439;-71
2023/05/06 07:10:09;;;;;;;11.23;10.10;;;;;;;;;;4955406;28;20452;-71
2023/05/06 07:12:35;;;;;;;9.40;8.50;;;;;;;;;;4950590;28;20049;-71
2023/05/06 07:15:00;;;;;;;10.25;9.30;;;;;;;;;;4959532;28;20031;-74
2023/05/06 07:17:26;;;;;;;9.90;8.90;;;;;;;;;;4966834;28;20041;-72
2023/05/06 07:19:51;;;;;;;9.27;8.43;;;;;;;;;;4971949;28;20043;-74
2023/05/06 07:22:16;;;;;;;9.65;8.75;;;;;;;;;;4968644;28;20157;-74
2023/05/06 07:24:42;;;;;;;9.93;8.98;;;;;;;;;;4957510;28;20112;-75
2023/05/06 07:27:07;;;;;;;10.35;9.27;;;;;;;;;;4953758;28;20037;-70
2023/05/06 07:29:35;;;;;;;9.30;8.50;;;;;;;;;;4957989;28;20438;-71
2023/05/06 07:32:01;;;;;;;9.98;9.00;;;;;;;;;;4965626;28;20033;-71
2023/05/06 07:34:26;;;;;;;9.27;8.43;;;;;;;;;;4968648;28;20026;-75
2023/05/06 07:36:51;;;;;;;9.55;8.65;;;;;;;;;;4968426;28;20357;-75
2023/05/06 07:39:17;;;;;;;9.43;8.63;;;;;;;;;;4960203;28;20107;-74
2023/05/06 07:41:42;;;;;;;9.18;8.38;;;;;;;;;;4961662;28;20058;-71
2023/05/06 07:44:07;;;;;;;9.93;8.95;;;;;;;;;;4969499;28;20391;-71
2023/05/06 07:46:34;;;;;;;8.88;8.10;;;;;;;;;;4954535;28;20034;-71
2023/05/06 07:48:59;;;;;;;8.30;7.53;;;;;;;;;;4954100;28;20081;-72
2023/05/06 07:51:25;;;;;;;7.82;7.03;;;;;;;;;;4968373;28;20030;-71
2023/05/06 07:53:51;;;;;;;8.38;7.57;;;;;;;;;;4973631;28;20026;-73
2023/05/06 07:56:16;;;;;;;7.53;6.88;;;;;;;;;;4969213;28;20097;-74
2023/05/06 07:58:42;;;;;;;6.63;6.03;;;;;;;;;;4958536;28;20041;-70
2023/05/06 08:01:07;;;;;;;6.95;6.30;;;;;;;;;;4960302;28;20498;-70
2023/05/06 08:03:33;;;;;;;6.70;6.05;;;;;;;;;;4956753;28;20062;-71
2023/05/06 08:05:59;;;;;;;6.00;5.50;;;;;;;;;;4956451;28;20109;-71
2023/05/06 08:08:26;;;;;;;8.85;6.90;;;;;;;;;;4964219;28;20114;-73
2023/05/06 08:10:56;;;;;;;7.40;6.72;;;;;;;;;;4962255;28;21126;-71
2023/05/06 08:13:22;;;;;;;6.95;6.03;;;;;;;;;;4956677;28;20039;-75
2023/05/06 08:15:47;;;;;;;5.95;5.25;;;;;;;;;;4960688;28;21029;-73
2023/05/06 08:18:13;;;;;;;6.03;5.40;;;;;;;;;;4955552;28;20026;-71
2023/05/06 08:20:38;;;;;;;6.15;5.50;;;;;;;;;;4955938;28;20050;-71
2023/05/06 08:23:03;;;;;;;7.88;5.00;;;;;;;;;;4955859;28;20406;-70
2023/05/06 08:25:29;;;;;;;4.78;4.32;;;;;;;;;;4955911;28;20397;-71
2023/05/06 08:27:55;;;;;;;4.63;4.22;;;;;;;;;;4954660;28;20030;-71
2023/05/06 08:30:20;;;;;;;4.95;4.45;;;;;;;;;;4957775;28;20042;-72
2023/05/06 08:32:46;;;;;;;4.90;4.13;;;;;;;;;;4955914;28;20079;-72
2023/05/06 08:35:11;;;;;;;4.55;4.18;;;;;;;;;;4956604;28;20034;-76
2023/05/06 08:37:36;;;;;;;5.05;4.47;;;;;;;;;;4973701;28;20122;-72
2023/05/06 08:40:04;;;;;;;4.47;4.07;;;;;;;;;;4960787;28;20316;-71
2023/05/06 08:42:29;;;;;;;4.28;3.88;;;;;;;;;;4957573;28;20052;-74
2023/05/06 08:44:55;;;;;;;6.60;3.78;;;;;;;;;;4960340;28;20370;-74
2023/05/06 08:47:21;;;;;;;3.83;3.50;;;;;;;;;;4956939;28;20023;-71
2023/05/06 08:49:47;;;;;;;5.68;3.55;;;;;;;;;;4957384;28;20053;-73
2023/05/06 08:52:12;;;;;;;3.78;3.38;;;;;;;;;;4955723;28;20038;-70
2023/05/06 08:54:38;;;;;;;3.38;3.08;;;;;;;;;;4955283;28;22699;-71
2023/05/06 08:57:07;;;;;;;3.75;3.35;;;;;;;;;;4953457;28;20105;-72
2023/05/06 08:59:33;;;;;;;5.00;3.33;;;;;;;;;;4966360;28;20434;-73
2023/05/06 09:01:59;;;;;;;5.05;3.28;;;;;;;;;;4968115;28;20038;-73
2023/05/06 09:04:25;;;;;;;4.30;3.03;;;;;;;;;;4969631;28;20046;-72
2023/05/06 09:06:50;;;;;;;4.88;3.75;;;;;;;;;;4955380;28;20101;-73
2023/05/06 09:09:15;;;;;;;4.28;3.60;;;;;;;;;;4964693;28;20081;-72
2023/05/06 09:11:41;;;;;;;4.30;3.10;;;;;;;;;;4954374;28;20433;-76
2023/05/06 09:14:16;;;;;;;3.17;2.85;;;;;;;;;;4954237;28;20717;-74
2023/05/06 09:16:42;;;;;;;3.10;2.85;;;;;;;;;;4956507;28;20110;-73
2023/05/06 09:19:08;;;;;;;4.93;3.45;;;;;;;;;;4963094;28;20499;-73
2023/05/06 09:21:38;;;;;;;15.32;4.10;;;;;;;;;;4970246;28;20038;-73
2023/05/06 09:24:04;;;;;;;5.63;3.33;;;;;;;;;;4962388;28;20035;-74
2023/05/06 09:26:31;;;;;;;3.35;3.15;;;;;;;;;;4956341;28;20052;-73
2023/05/06 09:28:57;;;;;;;5.95;3.17;;;;;;;;;;4954404;28;20158;-73
2023/05/06 09:31:23;;;;;;;3.30;3.00;;;;;;;;;;4956635;28;20044;-75
2023/05/06 09:33:48;;;;;;;3.30;2.83;;;;;;;;;;4971798;28;20041;-75
2023/05/06 09:36:14;;;;;;;3.90;2.53;;;;;;;;;;4956518;28;20030;-72
2023/05/06 09:38:40;;;;;;;2.67;2.33;;;;;;;;;;4958026;28;20377;-72
2023/05/06 09:41:06;;;;;;;3.08;2.65;;;;;;;;;;4954814;28;20558;-72
2023/05/06 09:43:31;;;;;;;4.15;3.08;;;;;;;;;;4954911;28;20069;-72
2023/05/06 09:45:57;;;;;;;5.70;2.90;;;;;;;;;;4952507;28;20026;-77
2023/05/06 09:48:22;;;;;;;6.07;2.78;;;;;;;;;;4954577;28;20110;-74
2023/05/06 09:50:49;;;;;;;3.70;2.42;;;;;;;;;;4953787;28;20046;-76
2023/05/06 09:53:16;;;;;;;3.17;2.47;;;;;;;;;;4955410;28;20062;-73
2023/05/06 09:55:42;;;;;;;3.00;2.45;;;;;;;;;;4957484;28;20034;-74
2023/05/06 09:58:08;;;;;;;4.05;3.05;;;;;;;;;;4954819;28;20494;-73
2023/05/06 10:00:34;;;;;;;5.53;3.25;;;;;;;;;;4955263;28;20029;-73
2023/05/06 10:03:00;;;;;;;2.90;2.60;;;;;;;;;;4953438;28;21160;-73
2023/05/06 10:05:27;;;;;;;2.97;2.22;;;;;;;;;;4955643;28;20030;-74
2023/05/06 10:07:53;;;;;;;2.65;2.45;;;;;;;;;;4956139;28;20461;-74
2023/05/06 10:10:19;;;;;;;3.20;2.97;;;;;;;;;;4953305;28;20029;-74
2023/05/06 10:12:45;;;;;;;3.17;2.88;;;;;;;;;;4954123;28;20031;-73
2023/05/06 10:15:10;;;;;;;8.32;2.90;;;;;;;;;;4953962;28;20434;-71
2023/05/06 10:17:38;;;;;;;3.67;3.25;;;;;;;;;;4956103;28;20027;-72
2023/05/06 10:20:06;;;;;;;3.05;2.60;;;;;;;;;;4952118;28;20055;-76
2023/05/06 10:22:50;;;;;;;4.15;2.95;;;;;;;;;;4964330;28;20100;-77
2023/05/06 10:25:16;;;;;;;3.40;2.83;;;;;;;;;;4955248;28;20436;-76
2023/05/06 10:27:43;;;;;;;4.57;3.05;;;;;;;;;;4952750;28;20022;-75
2023/05/06 10:30:09;;;;;;;2.67;2.47;;;;;;;;;;4952936;28;20094;-73
2023/05/06 10:32:37;;;;;;;2.92;2.28;;;;;;;;;;4954426;28;20062;-73
2023/05/06 10:35:09;;;;;;;3.60;2.72;;;;;;;;;;4953266;28;20041;-75
2023/05/06 10:37:35;;;;;;;3.42;2.80;;;;;;;;;;4953037;28;20023;-73
2023/05/06 10:40:03;;;;;;;3.00;2.80;;;;;;;;;;4956015;28;20033;-74
2023/05/06 10:42:32;;;;;;;3.05;2.85;;;;;;;;;;4953398;28;20070;-74
2023/05/06 10:45:00;;;;;;;2.70;2.50;;;;;;;;;;4954910;28;20428;-74
2023/05/06 10:47:26;;;;;;;3.60;3.03;;;;;;;;;;4954419;28;20096;-72
2023/05/06 10:50:20;;;;;;;3.90;3.50;;;;;;;;;;4953459;28;20407;-72
2023/05/06 10:52:47;;;;;;;4.22;3.30;;;;;;;;;;4943753;28;20045;-72
2023/05/06 10:55:26;;;;;;;4.63;3.15;;;;;;;;;;4954445;28;20027;-73
2023/05/06 10:57:55;;;;;;;4.18;2.90;;;;;;;;;;4954506;28;20034;-74
2023/05/06 11:00:21;;;;;;;6.63;3.30;;;;;;;;;;4952097;28;20023;-72
2023/05/06 11:02:50;;;;;;;2.78;2.58;;;;;;;;;;4951968;28;20181;-72
2023/05/06 11:05:16;;;;;;;3.75;3.10;;;;;;;;;;4960810;28;20031;-72
2023/05/06 11:07:41;;;;;;;5.05;4.00;;;;;;;;;;4954753;28;20026;-71
2023/05/06 11:10:10;;;;;;;7.75;3.97;;;;;;;;;;4971579;28;20339;-73
2023/05/06 11:12:45;;;;;;;8.15;3.58;;;;;;;;;;4974130;28;20069;-72
2023/05/06 11:15:20;;;;;;;4.13;3.28;;;;;;;;;;4973304;28;20523;-72
2023/05/06 11:17:45;;;;;;;3.78;2.72;;;;;;;;;;4968094;28;20038;-75
2023/05/06 11:20:21;;;;;;;4.18;3.42;;;;;;;;;;4968694;28;20027;-72
2023/05/06 11:22:46;;;;;;;4.47;3.60;;;;;;;;;;4971961;28;20039;-71
2023/05/06 11:25:12;;;;;;;5.75;4.30;;;;;;;;;;4969700;28;20022;-75
2023/05/06 11:27:37;;;;;;;6.47;5.20;;;;;;;;;;4975819;28;20039;-72
2023/05/06 11:30:03;;;;;;;4.28;3.38;;;;;;;;;;4977864;28;20442;-74
2023/05/06 11:32:28;;;;;;;5.65;3.05;;;;;;;;;;4972262;28;20030;-73
2023/05/06 11:34:57;;;;;;;5.75;3.50;;;;;;;;;;4970840;28;20092;-72
2023/05/06 11:37:26;;;;;;;3.75;2.92;;;;;;;;;;4973930;28;20037;-75
2023/05/06 11:39:51;;;;;;;;;;;;;;;;;;4977144;28;20097;-73
2023/05/06 11:42:23;;;;;;;8.70;3.50;;;;;;;;;;4975388;28;20365;-72
2023/05/06 11:44:48;;;;;;;3.10;2.80;;;;;;;;;;4973274;28;20077;-72
2023/05/06 11:47:14;;;;;;;6.20;3.05;;;;;;;;;;4968749;28;20035;-77
2023/05/06 11:49:40;;;;;;;4.35;3.20;;;;;;;;;;4971622;28;20387;-74
2023/05/06 11:52:09;;;;;;;7.05;3.92;;;;;;;;;;4980284;28;20704;-71
2023/05/06 11:54:35;;;;;;;;;;;;;;;;;;4971353;28;20500;-76
2023/05/06 11:57:00;;;;;;;4.20;2.87;;;;;;;;;;4969527;28;19914;-75
2023/05/06 11:59:27;;;;;;;3.22;2.78;;;;;;;;;;4974624;28;20026;-71
2023/05/06 12:01:52;;;;;;;3.67;3.00;;;;;;;;;;4969177;28;20477;-72
2023/05/06 12:04:18;;;;;;;5.55;3.17;;;;;;;;;;4971262;28;20019;-74
2023/05/06 12:06:43;;;;;;;4.28;3.00;;;;;;;;;;4972431;28;20342;-75
2023/05/06 12:09:10;;;;;;;4.68;3.10;;;;;;;;;;4972056;28;20023;-76
2023/05/06 12:11:36;;;;;;;4.47;3.03;;;;;;;;;;4971246;28;20033;-72
2023/05/06 12:14:03;;;;;;;4.30;2.90;;;;;;;;;;4970710;28;20131;-73
2023/05/06 12:16:29;;;;;;;5.22;3.30;;;;;;;;;;4972369;28;20042;-73
2023/05/06 12:18:54;;;;;;;3.55;2.90;;;;;;;;;;4969070;28;20477;-75
2023/05/06 12:21:23;;;;;;;3.83;2.92;;;;;;;;;;4970618;28;20037;-73
2023/05/06 12:23:52;;;;;;;4.03;3.60;;;;;;;;;;4971675;28;20050;-72
2023/05/06 12:26:21;;;;;;;4.57;2.88;;;;;;;;;;4972130;28;20046;-73
2023/05/06 12:29:02;;;;;;;6.82;3.50;;;;;;;;;;4977328;28;20027;-73
2023/05/06 12:31:27;;;;;;;6.28;3.13;;;;;;;;;;4971856;28;20031;-74
2023/05/06 12:33:52;;;;;;;6.70;2.90;;;;;;;;;;4963479;28;20101;-72
2023/05/06 12:36:18;;;;;;;8.00;3.28;;;;;;;;;;4970450;28;20022;-77
2023/05/06 12:38:53;;;;;;;6.88;3.60;;;;;;;;;;4971987;28;20387;-73
2023/05/06 12:41:20;;;;;;;7.57;2.90;;;;;;;;;;4968084;28;20447;-75
2023/05/06 12:43:45;;;;;;;8.85;3.42;;;;;;;;;;4971667;28;20093;-72
2023/05/06 12:46:11;;;;;;;7.80;3.40;;;;;;;;;;4972620;28;20034;-73
2023/05/06 12:48:37;;;;;;;18.30;4.10;;;;;;;;;;4970894;28;20077;-73
2023/05/06 12:51:31;;;;;;;3.90;2.30;;;;;;;;;;4969282;28;20422;-73
2023/05/06 12:53:57;;;;;;;3.42;2.42;;;;;;;;;;4963137;28;20349;-72
2023/05/06 12:56:22;;;;;;;2.63;2.42;;;;;;;;;;4978486;28;20030;-71
2023/05/06 12:58:57;;;;;;;4.05;2.60;;;;;;;;;;4974463;28;20030;-71
2023/05/06 13:01:23;;;;;;;3.42;2.50;;;;;;;;;;4972092;28;20043;-73
2023/05/06 13:03:48;;;;;;;3.72;2.40;;;;;;;;;;4976122;28;20027;-71
2023/05/06 13:06:14;;;;;;;6.40;3.92;;;;;;;;;;4960561;28;20124;-75
2023/05/06 13:08:40;;;;;;;4.78;2.42;;;;;;;;;;4961120;28;20338;-71
2023/05/06 13:11:05;;;;;;;8.88;3.30;;;;;;;;;;4973261;28;20026;-76
2023/05/06 13:13:30;;;;;;;4.22;3.67;;;;;;;;;;4974500;28;20045;-71
2023/05/06 13:15:56;;;;;;;5.85;4.60;;;;;;;;;;4954092;28;20100;-76
2023/05/06 13:18:21;;;;;;;3.38;2.30;;;;;;;;;;4954547;28;20451;-71
2023/05/06 13:20:47;;;;;;;3.83;2.10;;;;;;;;;;4955197;28;20037;-71
2023/05/06 13:23:12;;;;;;;2.83;2.63;;;;;;;;;;4953695;28;20447;-71
2023/05/06 13:25:37;;;;;;;2.83;2.50;;;;;;;;;;4958625;28;20038;-73
2023/05/06 13:28:03;;;;;;;3.80;3.33;;;;;;;;;;4943089;28;20047;-72
2023/05/06 13:30:28;;;;;;;6.15;3.10;;;;;;;;;;4943934;28;20030;-71
2023/05/06 13:32:54;;;;;;;3.33;2.83;;;;;;;;;;4950537;28;20035;-74
2023/05/06 13:35:19;;;;;;;5.72;3.65;;;;;;;;;;4945044;28;20059;-72
2023/05/06 13:37:45;;;;;;;6.93;3.58;;;;;;;;;;4941525;28;20312;-74
2023/05/06 13:40:10;;;;;;;13.90;4.93;;;;;;;;;;4939254;28;23018;-72
2023/05/06 13:42:37;;;;;;;12.40;4.43;;;;;;;;;;4944026;28;20112;-70
2023/05/06 13:45:02;;;;;;;18.40;4.55;;;;;;;;;;4937849;28;20031;-70
2023/05/06 13:47:28;;;;;;;3.67;2.63;;;;;;;;;;4938692;28;20030;-72
2023/05/06 13:49:53;;;;;;;10.85;2.90;;;;;;;;;;4943005;28;20109;-71
2023/05/06 13:52:18;;;;;;;10.57;5.90;;;;;;;;;;4946420;28;20038;-71
2023/05/06 13:54:45;;;;;;;3.95;3.30;;;;;;;;;;4946132;28;20496;-73
2023/05/06 13:57:10;;;;;;;4.43;3.00;;;;;;;;;;4942045;28;20038;-73
2023/05/06 13:59:35;;;;;;;3.42;2.72;;;;;;;;;;4942959;28;20030;-72
2023/05/06 14:02:01;;;;;;;7.78;3.90;;;;;;;;;;4942104;28;20205;-73
2023/05/06 14:04:26;;;;;;;8.00;3.42;;;;;;;;;;4944139;28;20062;-71
2023/05/06 14:06:52;;;;;;;11.60;7.50;;;;;;;;;;4948407;28;20350;-74
2023/05/06 14:09:17;;;;;;;5.43;3.40;;;;;;;;;;4942812;28;20045;-71
2023/05/06 14:11:43;;;;;;;4.35;2.40;;;;;;;;;;4938932;28;20031;-74
2023/05/06 14:14:08;;;;;;;3.08;2.30;;;;;;;;;;4921881;28;20462;-71
2023/05/06 14:16:33;;;;;;;4.85;2.67;;;;;;;;;;4941764;28;20045;-76
2023/05/06 14:18:59;;;;;;;3.50;2.17;;;;;;;;;;4941149;28;20662;-73
2023/05/06 14:21:24;;;;;;;5.18;3.10;;;;;;;;;;4939315;28;20029;-75
2023/05/06 14:23:50;;;;;;;3.00;2.10;;;;;;;;;;4944166;28;20339;-71
2023/05/06 14:26:15;;;;;;;2.50;2.30;;;;;;;;;;4951133;28;20144;-72
2023/05/06 14:28:41;;;;;;;2.60;2.40;;;;;;;;;;4940398;28;20118;-71
2023/05/06 14:31:06;;;;;;;3.83;2.40;;;;;;;;;;4955075;28;20150;-71